Time;durP1;ratioP1;P1;durP2;ratioP2;P2;SDS_P1;SDS_P2;PMS_P1;PMS_P2;Temp;Humidity;BMP_temperature;BMP_pressure;BME280_temperature;BME280_humidity;BME280_pressure;Samples;Min_cycle;Max_cycle;Signal;HPM_P1;HPM_P2
2022/04/18 00:00:01;;;;;;;;;;;;;;;6.54;42.26;98431.31;4986368;28;20027;-75
2022/04/18 00:03:03;;;;;;;;;;;;;;;6.43;42.06;98426.22;4986661;28;19929;-74
2022/04/18 00:05:31;;;;;;;;;;;;;;;6.50;42.53;98422.19;4991894;28;20017;-74
2022/04/18 00:07:59;;;;;;;;;;;;;;;6.42;42.23;98430.00;4984400;28;19973;-75
2022/04/18 00:10:29;;;;;;;;;;;;;;;6.20;43.08;98428.41;4978883;28;19930;-74
2022/04/18 00:12:57;;;;;;;;;;;;;;;6.27;43.13;98428.13;4981658;28;19926;-75
2022/04/18 00:15:25;;;;;;;;;;;;;;;6.22;43.38;98428.91;4979208;28;19926;-74
2022/04/18 00:17:52;;;;;;;;;;;;;;;6.42;42.84;98430.81;4991781;28;20270;-74
2022/04/18 00:20:20;;;;;;;;;;;;;;;6.27;43.68;98431.63;5002413;28;19933;-74
2022/04/18 00:22:49;;;;;;;;;;;;;;;6.30;43.34;98433.78;4998386;28;19941;-74
2022/04/18 00:25:17;;;;;;;;;;;;;;;6.28;44.01;98418.94;4984348;28;19926;-74
2022/04/18 00:27:46;;;;;;;;;;;;;;;6.69;42.61;98422.41;5013013;28;20359;-74
2022/04/18 00:30:13;;;;;;;;;;;;;;;6.60;43.16;98413.22;4999014;28;20384;-74
2022/04/18 00:32:41;;;;;;;;;;;;;;;6.39;43.63;98419.75;5005885;28;19932;-75
2022/04/18 00:35:09;;;;;;;;;;;;;;;6.48;43.47;98421.63;4993305;28;19936;-74
2022/04/18 00:37:39;;;;;;;;;;;;;;;6.21;43.98;98418.41;4982849;28;20012;-74
2022/04/18 00:40:08;;;;;;;;;;;;;;;6.13;44.58;98416.28;5000093;28;19925;-74
2022/04/18 00:43:39;;;;;;;;;;;;;;;6.16;44.20;98416.50;4995987;28;19945;-73
2022/04/18 00:46:08;;;;;;;;;;;;;;;6.19;44.49;98405.19;4995023;28;19925;-73
2022/04/18 00:48:36;;;;;;;;;;;;;;;6.18;44.25;98411.69;5008560;28;19958;-73
2022/04/18 00:51:06;;;;;;;;;;;;;;;6.03;45.08;98408.97;4979253;28;19925;-73
2022/04/18 00:53:59;;;;;;;;;;;;;;;6.16;44.93;98410.31;5000114;28;20387;-73
2022/04/18 00:56:27;;;;;;;;;;;;;;;6.22;44.55;98398.44;4987796;28;19925;-73
2022/04/18 00:58:56;;;;;;;;;;;;;;;6.07;44.72;98401.13;5002316;28;19933;-75
2022/04/18 01:01:24;;;;;;;;;;;;;;;5.95;45.30;98394.13;4975883;28;20020;-74
2022/04/18 01:03:55;;;;;;;;;;;;;;;5.95;45.55;98394.13;4988676;28;19926;-72
2022/04/18 01:06:24;;;;;;;;;;;;;;;5.89;45.39;98391.66;4992196;28;19925;-74
2022/04/18 01:08:52;;;;;;;;;;;;;;;6.09;44.92;98378.22;4991480;28;20025;-75
2022/04/18 01:11:21;;;;;;;;;;;;;;;5.95;45.77;98379.84;4989358;28;19930;-75
2022/04/18 01:14:06;;;;;;;;;;;;;;;5.86;46.04;98379.56;4993453;28;19984;-74
2022/04/18 01:16:49;;;;;;;;;;;;;;;6.27;44.65;98387.63;4999535;28;20024;-74
2022/04/18 01:19:50;;;;;;;;;;;;;;;6.30;44.63;98385.22;4966620;28;19937;-74
2022/04/18 01:22:42;;;;;;;;;;;;;;;5.97;45.63;98385.78;4968839;28;19934;-74
2022/04/18 01:30:53;;;;;;;;;;;;;;;6.07;44.93;98374.16;4971619;28;20399;-75
2022/04/18 01:33:21;;;;;;;;;;;;;;;5.92;45.50;98373.09;4977001;28;19926;-74
2022/04/18 01:35:49;;;;;;;;;;;;;;;6.03;45.88;98369.31;4952578;28;20080;-74
2022/04/18 01:38:19;;;;;;;;;;;;;;;5.93;45.52;98368.53;4964739;28;19964;-75
2022/04/18 01:40:47;;;;;;;;;;;;;;;6.08;45.14;98371.22;4962129;28;19926;-74
2022/04/18 01:43:18;;;;;;;;;;;;;;;5.72;45.95;98368.47;4963522;28;19972;-74
2022/04/18 01:45:46;;;;;;;;;;;;;;;5.74;46.52;98371.69;4966028;28;19926;-74
2022/04/18 01:48:40;;;;;;;;;;;;;;;5.95;46.41;98366.34;4972251;28;20076;-74
2022/04/18 01:51:08;;;;;;;;;;;;;;;5.98;46.05;98366.63;4960907;28;19936;-74
2022/04/18 01:54:01;;;;;;;;;;;;;;;5.70;46.36;98361.72;4967205;28;19926;-74
2022/04/18 01:56:31;;;;;;;;;;;;;;;5.83;46.91;98361.19;4963439;28;19942;-74
2022/04/18 01:59:00;;;;;;;;;;;;;;;5.78;46.82;98364.69;4970458;28;19937;-74
2022/04/18 02:01:32;;;;;;;;;;;;;;;5.53;46.93;98356.56;4951154;28;20021;-74
2022/04/18 02:04:01;;;;;;;;;;;;;;;5.60;47.22;98359.84;4962318;28;19977;-75
2022/04/18 02:06:31;;;;;;;;;;;;;;;5.40;47.60;98355.22;4967707;28;19926;-74
2022/04/18 02:08:59;;;;;;;;;;;;;;;5.58;47.24;98347.69;4972933;28;19969;-75
2022/04/18 02:11:27;;;;;;;;;;;;;;;5.53;47.28;98348.50;4967533;28;19973;-75
2022/04/18 02:13:58;;;;;;;;;;;;;;;5.60;47.60;98346.38;4962410;28;19929;-74
2022/04/18 02:16:31;;;;;;;;;;;;;;;5.69;47.51;98336.66;4964067;28;20026;-75
2022/04/18 02:19:05;;;;;;;;;;;;;;;5.50;47.78;98330.19;4955407;28;19926;-73
2022/04/18 02:21:33;;;;;;;;;;;;;;;5.53;47.36;98335.81;4970725;28;19926;-73
2022/04/18 02:24:01;;;;;;;;;;;;;;;5.49;48.17;98325.88;4951371;28;19941;-73
2022/04/18 02:26:28;;;;;;;;;;;;;;;5.58;47.71;98324.25;4982504;28;19989;-73
2022/04/18 02:29:06;;;;;;;;;;;;;;;5.61;47.70;98325.59;4963892;28;19930;-74
2022/04/18 02:32:47;;;;;;;;;;;;;;;5.47;47.91;98322.63;4963546;28;19926;-73
2022/04/18 02:34:24;;;;;;;;;;;;;;;5.46;47.89;98318.31;4966334;28;19929;-73
2022/04/18 02:36:54;;;;;;;;;;;;;;;5.56;47.99;98310.25;4946869;28;20325;-72
2022/04/18 02:39:25;;;;;;;;;;;;;;;5.52;48.03;98312.66;4960486;28;19961;-73
2022/04/18 02:41:55;;;;;;;;;;;;;;;5.20;48.83;98312.06;4978197;28;19926;-72
2022/04/18 02:44:25;;;;;;;;;;;;;;;5.24;48.79;98316.66;4967802;28;19926;-72
2022/04/18 02:46:55;;;;;;;;;;;;;;;5.28;49.12;98310.75;4950751;28;19932;-73
2022/04/18 02:49:23;;;;;;;;;;;;;;;5.56;48.11;98310.25;4978399;28;20012;-73
2022/04/18 02:51:51;;;;;;;;;;;;;;;5.31;48.54;98302.94;4969449;28;20353;-73
2022/04/18 02:54:25;;;;;;;;;;;;;;;5.21;49.10;98306.41;4980707;28;19926;-72
2022/04/18 02:57:18;;;;;;;;;;;;;;;5.32;48.83;98306.44;4965763;28;20464;-72
2022/04/18 03:00:13;;;;;;;;;;;;;;;5.32;48.61;98304.53;4970124;28;19930;-73
2022/04/18 03:02:42;;;;;;;;;;;;;;;5.17;49.12;98302.66;4965540;28;20538;-73
2022/04/18 03:05:10;;;;;;;;;;;;;;;5.34;49.06;98298.91;4971822;28;19932;-73
2022/04/18 03:07:38;;;;;;;;;;;;;;;5.26;48.75;98297.53;4964146;28;19957;-73
2022/04/18 03:10:07;;;;;;;;;;;;;;;5.13;49.24;98293.47;4972337;28;19926;-73
2022/04/18 03:12:35;;;;;;;;;;;;;;;5.00;49.48;98286.69;4942509;28;20393;-73
2022/04/18 03:15:03;;;;;;;;;;;;;;;5.02;49.60;98285.66;4957303;28;19973;-75
2022/04/18 03:17:33;;;;;;;;;;;;;;;4.75;50.33;98288.53;4956302;28;19948;-74
2022/04/18 03:20:02;;;;;;;;;;;;;;;5.15;49.92;98283.25;4968530;28;19937;-74
2022/04/18 03:22:30;;;;;;;;;;;;;;;5.04;49.59;98284.28;4976346;28;19965;-73
2022/04/18 03:25:03;;;;;;;;;;;;;;;5.04;49.74;98278.09;4989654;28;20020;-73
2022/04/18 03:27:34;;;;;;;;;;;;;;;5.02;50.00;98274.88;4984985;28;19926;-73
2022/04/18 03:30:02;;;;;;;;;;;;;;;4.97;49.87;98270.28;4979371;28;20001;-73
2022/04/18 03:32:40;;;;;;;;;;;;;;;4.78;50.31;98264.56;4980185;28;20435;-74
2022/04/18 03:35:08;;;;;;;;;;;;;;;4.59;51.16;98266.94;4973967;28;19952;-74
2022/04/18 03:40:23;;;;;;;;;;;;;;;4.53;51.28;98269.84;4989240;28;19926;-73
2022/04/18 03:42:52;;;;;;;;;;;;;;;4.62;51.23;98269.09;4973513;28;19930;-73
2022/04/18 03:45:22;;;;;;;;;;;;;;;4.71;51.28;98266.72;4978727;28;19944;-73
2022/04/18 03:47:52;;;;;;;;;;;;;;;4.87;50.86;98264.88;4976217;28;19930;-73
2022/04/18 03:50:20;;;;;;;;;;;;;;;4.76;50.99;98263.22;4991300;28;20288;-73
2022/04/18 03:52:48;;;;;;;;;;;;;;;4.68;50.90;98262.66;4985016;28;19951;-72
2022/04/18 03:55:36;;;;;;;;;;;;;;;4.86;50.77;98253.31;4973604;28;19926;-73
2022/04/18 03:58:19;;;;;;;;;;;;;;;4.71;51.20;98262.13;4973473;28;20296;-73
2022/04/18 04:00:47;;;;;;;;;;;;;;;4.89;50.87;98265.41;4986052;28;19932;-74
2022/04/18 04:03:17;;;;;;;;;;;;;;;4.68;51.29;98262.66;4960969;28;20371;-73
2022/04/18 04:05:50;;;;;;;;;;;;;;;4.39;51.98;98264.16;4997828;28;19929;-74
2022/04/18 04:08:22;;;;;;;;;;;;;;;4.30;52.39;98265.72;4983289;28;20299;-74
2022/04/18 04:14:07;;;;;;;;;;;;;;;4.32;52.34;98258.22;4997840;28;20295;-73
2022/04/18 04:16:38;;;;;;;;;;;;;;;4.53;52.12;98259.09;4976791;28;19932;-73
2022/04/18 04:19:07;;;;;;;;;;;;;;;4.57;51.79;98255.63;4989425;28;20016;-74
2022/04/18 04:22:02;;;;;;;;;;;;;;;4.55;51.83;98244.31;4977596;28;19969;-73
2022/04/18 04:24:30;;;;;;;;;;;;;;;4.62;51.95;98258.34;4994880;28;19926;-74
2022/04/18 04:26:59;;;;;;;;;;;;;;;4.43;52.45;98251.81;4982427;28;20371;-73
2022/04/18 04:29:26;;;;;;;;;;;;;;;4.60;52.24;98249.72;4975334;28;19933;-74
2022/04/18 04:31:58;;;;;;;;;;;;;;;4.63;52.41;98254.56;4974706;28;20377;-73
2022/04/18 04:34:31;;;;;;;;;;;;;;;4.69;51.75;98244.66;4971349;28;19933;-72
2022/04/18 04:37:25;;;;;;;;;;;;;;;4.60;52.34;98248.91;4978166;28;19933;-72
2022/04/18 04:39:59;;;;;;;;;;;;;;;4.58;52.66;98249.19;4981979;28;19985;-74
2022/04/18 04:42:34;;;;;;;;;;;;;;;4.60;52.62;98246.22;4972833;28;20095;-74
2022/04/18 04:45:02;;;;;;;;;;;;;;;4.65;52.45;98262.38;4975923;28;19938;-75
2022/04/18 04:47:55;;;;;;;;;;;;;;;4.68;52.11;98249.19;4972530;28;19932;-72
2022/04/18 04:50:25;;;;;;;;;;;;;;;4.63;51.96;98254.56;4989848;28;19926;-72
2022/04/18 04:53:03;;;;;;;;;;;;;;;4.96;51.77;98257.91;4980745;28;19926;-73
2022/04/18 04:55:32;;;;;;;;;;;;;;;4.70;52.07;98257.03;4986458;28;20391;-73
2022/04/18 04:58:00;;;;;;;;;;;;;;;4.53;52.77;98257.25;4977884;28;19932;-72
2022/04/18 05:00:42;;;;;;;;;;;;;;;4.63;52.53;98254.56;4994166;28;19933;-73
2022/04/18 05:03:22;;;;;;;;;;;;;;;4.68;52.26;98262.66;4979369;28;20025;-72
2022/04/18 05:05:51;;;;;;;;;;;;;;;4.61;52.10;98261.28;4995789;28;19926;-72
2022/04/18 05:08:28;;;;;;;;;;;;;;;4.57;52.31;98258.31;4986705;28;20017;-72
2022/04/18 05:13:54;;;;;;;;;;;;;;;4.99;51.51;98262.75;4987367;28;19926;-73
2022/04/18 05:16:40;;;;;;;;;;;;;;;4.81;52.00;98264.06;4979934;28;20016;-74
2022/04/18 05:19:27;;;;;;;;;;;;;;;4.73;52.38;98262.66;4986958;28;19933;-74
2022/04/18 05:22:16;;;;;;;;;;;;;;;4.78;52.39;98261.06;4963552;28;19926;-73
2022/04/18 05:24:45;;;;;;;;;;;;;;;4.89;52.42;98260.84;4979748;28;19925;-73
2022/04/18 05:27:17;;;;;;;;;;;;;;;5.02;51.57;98267.59;4987160;28;20024;-73
2022/04/18 05:29:46;;;;;;;;;;;;;;;5.03;51.75;98268.41;4999904;28;19926;-74
2022/04/18 05:32:14;;;;;;;;;;;;;;;5.11;52.15;98274.06;4982899;28;19964;-73
2022/04/18 05:34:51;;;;;;;;;;;;;;;5.21;51.61;98271.38;4981159;28;19926;-73
2022/04/18 05:37:27;;;;;;;;;;;;;;;5.63;50.24;98266.84;4987579;28;19933;-73
2022/04/18 05:43:04;;;;;;;;;;;;;;;5.55;50.38;98262.00;4963628;28;19934;-72
2022/04/18 05:45:34;;;;;;;;;;;;;;;5.70;50.56;98268.19;4990903;28;20028;-76
2022/04/18 05:48:12;;;;;;;;;;;;;;;5.75;50.56;98262.81;4988269;28;19933;-78
2022/04/18 05:50:48;;;;;;;;;;;;;;;5.88;49.90;98263.31;4998387;28;20036;-77
2022/04/18 05:53:28;;;;;;;;;;;;;;;6.01;50.11;98268.16;4978196;28;20436;-80
2022/04/18 05:56:15;;;;;;;;;;;;;;;6.18;50.07;98271.41;4989633;28;20109;-78
2022/04/18 05:58:58;;;;;;;;;;;;;;;6.31;48.96;98272.69;4980427;28;19932;-77
2022/04/18 06:01:49;;;;;;;;;;;;;;;6.64;48.67;98276.63;4974876;28;20314;-77
2022/04/18 06:04:28;;;;;;;;;;;;;;;6.69;48.57;98273.91;4993907;28;19926;-77
2022/04/18 06:07:22;;;;;;;;;;;;;;;6.72;47.66;98267.97;4964645;28;19936;-75
2022/04/18 06:10:09;;;;;;;;;;;;;;;6.88;47.78;98267.88;4984990;28;19936;-73
2022/04/18 06:12:37;;;;;;;;;;;;;;;6.88;47.68;98271.38;4969461;28;19926;-74
2022/04/18 06:15:06;;;;;;;;;;;;;;;7.13;47.10;98275.81;4970893;28;19929;-76
2022/04/18 06:17:34;;;;;;;;;;;;;;;7.20;47.04;98280.94;4975026;28;19932;-77
2022/04/18 06:20:04;;;;;;;;;;;;;;;7.04;47.31;98274.81;4980177;28;20320;-78
2022/04/18 06:22:32;;;;;;;;;;;;;;;7.05;47.64;98273.72;4971716;28;19926;-77
2022/04/18 06:25:00;;;;;;;;;;;;;;;7.04;47.44;98280.22;4973136;28;20016;-76
2022/04/18 06:27:33;;;;;;;;;;;;;;;7.30;47.06;98267.34;4977203;28;19957;-77
2022/04/18 06:30:02;;;;;;;;;;;;;;;7.53;46.10;98274.75;4968894;28;19930;-75
2022/04/18 06:32:44;;;;;;;;;;;;;;;7.52;46.39;98267.72;4976877;28;19984;-76
2022/04/18 06:35:13;;;;;;;;;;;;;;;7.79;45.84;98274.53;4971000;28;19926;-76
2022/04/18 06:37:40;;;;;;;;;;;;;;;7.84;45.92;98267.19;4967931;28;20454;-75
2022/04/18 06:40:40;;;;;;;;;;;;;;;8.13;45.41;98269.06;4973496;28;21334;-75
2022/04/18 06:43:10;;;;;;;;;;;;;;;8.16;45.41;98263.09;4965029;28;19926;-74
2022/04/18 06:46:10;;;;;;;;;;;;;;;8.43;44.48;98273.38;4993565;28;19940;-75
2022/04/18 06:48:38;;;;;;;;;;;;;;;8.54;44.13;98269.47;4972318;28;19948;-75
2022/04/18 06:51:25;;;;;;;;;;;;;;;8.49;44.31;98271.41;4977358;28;19937;-86
2022/04/18 06:54:13;;;;;;;;;;;;;;;8.88;44.13;98265.78;4976816;28;19926;-78
2022/04/18 06:57:00;;;;;;;;;;;;;;;8.90;43.92;98263.59;4981826;28;19962;-77
2022/04/18 06:59:55;;;;;;;;;;;;;;;8.99;44.06;98266.44;4975760;28;19926;-77
2022/04/18 07:02:25;;;;;;;;;;;;;;;9.22;42.30;98262.88;4965835;28;20030;-77
2022/04/18 07:04:54;;;;;;;;;;;;;;;9.11;42.90;98256.00;4982130;28;19929;-77
2022/04/18 07:07:22;;;;;;;;;;;;;;;9.44;42.42;98263.06;4972954;28;19937;-76
2022/04/18 07:09:51;;;;;;;;;;;;;;;9.62;41.41;98255.19;4967238;28;19926;-76
2022/04/18 07:12:22;;;;;;;;;;;;;;;9.77;41.65;98265.81;4959533;28;20385;-75
2022/04/18 07:14:51;;;;;;;;;;;;;;;10.09;41.16;98261.44;4957645;28;20021;-75
2022/04/18 07:17:21;;;;;;;;;;;;;;;10.21;41.44;98262.56;4975249;28;19933;-75
2022/04/18 07:19:49;;;;;;;;;;;;;;;10.11;41.34;98262.75;4973663;28;20027;-75
2022/04/18 07:22:21;;;;;;;;;;;;;;;10.51;40.68;98259.59;4983548;28;19926;-76
2022/04/18 07:24:53;;;;;;;;;;;;;;;10.54;39.83;98259.78;4988907;28;19926;-78
2022/04/18 07:27:23;;;;;;;;;;;;;;;10.58;39.75;98255.38;4972821;28;19926;-74
2022/04/18 07:30:00;;;;;;;;;;;;;;;10.87;40.05;98263.22;4973313;28;21524;-74
2022/04/18 07:32:30;;;;;;;;;;;;;;;11.15;38.48;98250.34;4973568;28;19926;-75
2022/04/18 07:35:05;;;;;;;;;;;;;;;11.19;38.45;98254.06;4985917;28;19930;-77
2022/04/18 07:38:48;;;;;;;;;;;;;;;11.16;39.02;98253.88;4966038;28;20304;-76
2022/04/18 07:40:33;;;;;;;;;;;;;;;11.30;38.20;98249.19;4974775;28;19977;-76
2022/04/18 07:43:08;;;;;;;;;;;;;;;11.38;37.57;98251.19;4977222;28;19926;-79
2022/04/18 07:45:38;;;;;;;;;;;;;;;11.55;37.74;98251.31;4974463;28;20311;-81
2022/04/18 07:48:09;;;;;;;;;;;;;;;11.80;37.23;98251.78;4979836;28;20419;-81
2022/04/18 07:53:29;;;;;;;;;;;;;;;11.98;37.16;98256.25;4979672;28;19965;-82
2022/04/18 07:55:57;;;;;;;;;;;;;;;12.06;36.57;98252.78;4976751;28;19929;-76
2022/04/18 07:58:27;;;;;;;;;;;;;;;12.13;37.66;98248.81;4976484;28;19933;-77
2022/04/18 08:00:56;;;;;;;;;;;;;;;12.46;35.15;98243.81;4981990;28;19934;-74
2022/04/18 08:03:26;;;;;;;;;;;;;;;12.40;35.84;98242.34;4982806;28;20372;-75
2022/04/18 08:05:57;;;;;;;;;;;;;;;12.47;34.51;98237.28;4965965;28;20068;-76
2022/04/18 08:08:34;;;;;;;;;;;;;;;12.58;34.73;98235.84;4984670;28;19934;-75
2022/04/18 08:11:28;;;;;;;;;;;;;;;12.80;34.22;98240.41;4988953;28;20029;-75
2022/04/18 08:13:57;;;;;;;;;;;;;;;13.11;33.13;98243.81;4973426;28;20332;-76
2022/04/18 08:16:47;;;;;;;;;;;;;;;13.19;33.01;98230.50;4973365;28;19980;-76
2022/04/18 08:19:53;;;;;;;;;;;;;;;13.25;32.54;98240.97;4972284;28;19966;-74
2022/04/18 08:22:21;;;;;;;;;;;;;;;13.16;32.71;98239.34;4979332;28;19932;-76
2022/04/18 08:25:08;;;;;;;;;;;;;;;13.09;32.18;98243.31;4980393;28;20197;-75
2022/04/18 08:27:42;;;;;;;;;;;;;;;13.32;31.38;98240.50;4981575;28;20111;-76
2022/04/18 08:30:19;;;;;;;;;;;;;;;13.34;30.89;98230.84;5005525;28;19926;-75
2022/04/18 08:32:56;;;;;;;;;;;;;;;13.32;31.33;98233.09;4985363;28;20343;-76
2022/04/18 08:35:26;;;;;;;;;;;;;;;13.48;31.27;98224.44;4977368;28;19965;-75
2022/04/18 08:37:54;;;;;;;;;;;;;;;13.58;31.29;98216.72;4980660;28;20012;-75
2022/04/18 08:40:49;;;;;;;;;;;;;;;13.96;29.67;98231.59;4996614;28;20012;-75
2022/04/18 08:43:17;;;;;;;;;;;;;;;14.02;29.51;98222.09;4990167;28;19929;-75
2022/04/18 08:45:46;;;;;;;;;;;;;;;14.09;29.80;98225.91;4980300;28;19988;-75
2022/04/18 08:53:58;;;;;;;;;;;;;;;14.21;29.69;98213.50;4975112;28;19926;-76
2022/04/18 08:56:26;;;;;;;;;;;;;;;14.42;29.66;98211.63;4981371;28;19940;-76
2022/04/18 08:58:54;;;;;;;;;;;;;;;14.48;28.44;98204.06;4976088;28;20939;-76
2022/04/18 09:01:23;;;;;;;;;;;;;;;14.47;29.10;98203.28;4978004;28;19980;-76
2022/04/18 09:03:54;;;;;;;;;;;;;;;14.51;29.45;98208.91;4982420;28;20687;-76
2022/04/18 09:06:38;;;;;;;;;;;;;;;14.60;30.61;98202.25;4988482;28;19926;-76
2022/04/18 09:09:26;;;;;;;;;;;;;;;14.48;29.64;98207.59;4984672;28;20434;-77
2022/04/18 09:11:57;;;;;;;;;;;;;;;14.58;28.72;98199.03;4979122;28;19940;-76
2022/04/18 09:14:28;;;;;;;;;;;;;;;14.80;29.72;98199.88;4977769;28;19933;-76
2022/04/18 09:16:56;;;;;;;;;;;;;;;14.74;28.86;98190.25;4992069;28;19930;-76
2022/04/18 09:19:43;;;;;;;;;;;;;;;14.75;29.02;98191.84;5000100;28;19937;-76
2022/04/18 09:22:18;;;;;;;;;;;;;;;14.63;29.06;98189.84;4974365;28;19948;-76
2022/04/18 09:24:54;;;;;;;;;;;;;;;14.72;30.33;98185.13;4991919;28;19925;-76
2022/04/18 09:27:27;;;;;;;;;;;;;;;15.16;28.00;98180.94;4992408;28;20387;-76
2022/04/18 09:30:17;;;;;;;;;;;;;;;15.19;28.24;98191.22;4987378;28;19949;-76
2022/04/18 09:33:00;;;;;;;;;;;;;;;15.28;27.92;98174.69;4990656;28;19926;-77
2022/04/18 09:35:36;;;;;;;;;;;;;;;15.26;27.80;98177.00;4987993;28;19926;-76
2022/04/18 09:38:08;;;;;;;;;;;;;;;15.27;28.36;98188.72;4976705;28;19933;-76
2022/04/18 09:40:54;;;;;;;;;;;;;;;15.16;28.30;98180.94;5011019;28;19928;-76
2022/04/18 09:43:39;;;;;;;;;;;;;;;15.01;28.65;98178.00;5015671;28;20025;-76
2022/04/18 09:46:09;;;;;;;;;;;;;;;14.99;28.81;98181.06;4982268;28;19949;-76
2022/04/18 09:48:43;;;;;;;;;;;;;;;15.39;27.58;98183.31;4967008;28;19965;-76
2022/04/18 09:51:12;;;;;;;;;;;;;;;15.15;27.69;98175.81;4973735;28;19926;-76
2022/04/18 09:53:53;;;;;;;;;;;;;;;15.29;28.14;98175.53;4980744;28;19926;-76
2022/04/18 09:56:21;;;;;;;;;;;;;;;15.28;27.47;98168.44;4987893;28;20028;-76
2022/04/18 09:58:50;;;;;;;;;;;;;;;15.37;28.89;98169.16;4997296;28;20024;-76
2022/04/18 10:01:35;;;;;;;;;;;;;;;15.51;28.28;98168.88;4997698;28;19926;-76
2022/04/18 10:04:05;;;;;;;;;;;;;;;15.51;28.47;98172.41;4998269;28;20021;-76
2022/04/18 10:06:33;;;;;;;;;;;;;;;15.27;28.29;98169.56;4976220;28;20032;-76
2022/04/18 10:09:02;;;;;;;;;;;;;;;15.43;28.84;98162.34;4974977;28;19933;-77
2022/04/18 10:11:30;;;;;;;;;;;;;;;15.59;28.99;98157.81;4982193;28;20019;-76
2022/04/18 10:13:57;;;;;;;;;;;;;;;15.60;28.26;98148.47;4983298;28;20012;-76
2022/04/18 10:16:25;;;;;;;;;;;;;;;15.80;27.07;98154.25;4969070;28;20356;-77
2022/04/18 10:19:20;;;;;;;;;;;;;;;15.92;28.30;98157.00;4974797;28;19926;-77
2022/04/18 10:21:49;;;;;;;;;;;;;;;15.69;27.13;98141.00;4977212;28;19952;-75
2022/04/18 10:24:35;;;;;;;;;;;;;;;15.61;28.11;98132.88;4971745;28;19926;-78
2022/04/18 10:27:37;;;;;;;;;;;;;;;15.61;27.81;98136.41;4974986;28;19933;-78
2022/04/18 10:30:06;;;;;;;;;;;;;;;15.13;27.73;98137.84;4968135;28;20022;-75
2022/04/18 10:32:35;;;;;;;;;;;;;;;15.40;28.40;98135.66;4972936;28;19933;-75
2022/04/18 10:35:03;;;;;;;;;;;;;;;15.59;28.24;98138.66;4954629;28;20308;-76
2022/04/18 10:37:32;;;;;;;;;;;;;;;15.71;26.69;98129.69;4970231;28;20015;-77
2022/04/18 10:40:00;;;;;;;;;;;;;;;15.84;27.63;98127.78;4955310;28;20388;-75
2022/04/18 10:42:31;;;;;;;;;;;;;;;15.45;26.92;98121.75;4978582;28;19930;-77
2022/04/18 10:45:00;;;;;;;;;;;;;;;15.41;26.98;98118.88;4972627;28;19980;-76
2022/04/18 10:47:43;;;;;;;;;;;;;;;15.66;27.48;98128.00;4954979;28;19926;-76
2022/04/18 10:50:19;;;;;;;;;;;;;;;15.67;27.00;98118.63;4970180;28;19973;-76
2022/04/18 10:53:07;;;;;;;;;;;;;;;15.72;27.33;98112.13;4971409;28;19976;-76
2022/04/18 10:55:35;;;;;;;;;;;;;;;15.59;27.08;98110.47;4974506;28;19953;-76
2022/04/18 10:58:10;;;;;;;;;;;;;;;15.63;26.88;98101.28;4952509;28;19957;-76
2022/04/18 11:00:47;;;;;;;;;;;;;;;15.70;26.35;98109.72;4952288;28;20105;-76
2022/04/18 11:03:16;;;;;;;;;;;;;;;15.85;27.24;98107.47;4993367;28;19926;-76
2022/04/18 11:05:45;;;;;;;;;;;;;;;15.66;26.65;98100.59;4958185;28;19969;-76
2022/04/18 11:08:23;;;;;;;;;;;;;;;15.44;26.71;98098.22;4969074;28;20006;-76
2022/04/18 11:10:50;;;;;;;;;;;;;;;15.24;26.18;98096.38;4972159;28;19933;-76
2022/04/18 11:13:43;;;;;;;;;;;;;;;15.41;26.83;98098.91;4998295;28;19934;-75
2022/04/18 11:16:47;;;;;;;;;;;;;;;15.68;26.60;98094.78;4975958;28;19933;-76
2022/04/18 11:19:17;;;;;;;;;;;;;;;15.33;26.31;98091.59;4967357;28;19932;-76
2022/04/18 11:22:04;;;;;;;;;;;;;;;15.56;26.95;98079.09;4996040;28;20427;-76
2022/04/18 11:24:35;;;;;;;;;;;;;;;15.96;27.01;98076.53;4960105;28;19933;-75
2022/04/18 11:27:03;;;;;;;;;;;;;;;16.09;27.09;98074.59;4973441;28;21243;-76
2022/04/18 11:29:31;;;;;;;;;;;;;;;15.92;25.78;98074.81;4985839;28;19984;-76
2022/04/18 11:31:59;;;;;;;;;;;;;;;15.68;26.09;98070.13;4990881;28;19931;-76
2022/04/18 11:37:22;;;;;;;;;;;;;;;15.78;25.77;98075.16;4996988;28;19936;-74
2022/04/18 11:39:53;;;;;;;;;;;;;;;15.87;25.60;98066.81;4985808;28;19972;-75
2022/04/18 11:42:21;;;;;;;;;;;;;;;16.16;25.75;98069.34;4999240;28;20495;-76
2022/04/18 11:44:56;;;;;;;;;;;;;;;15.93;25.48;98065.47;4973200;28;19929;-76
2022/04/18 11:47:28;;;;;;;;;;;;;;;15.94;26.85;98061.59;4978249;28;20020;-75
2022/04/18 11:49:58;;;;;;;;;;;;;;;15.58;26.23;98054.91;4979853;28;20427;-76
2022/04/18 11:52:30;;;;;;;;;;;;;;;15.68;26.62;98049.03;4993391;28;19926;-76
2022/04/18 11:55:01;;;;;;;;;;;;;;;16.06;27.45;98049.81;4979854;28;19925;-76
2022/04/18 11:57:29;;;;;;;;;;;;;;;16.15;25.80;98034.84;4992508;28;19949;-77
2022/04/18 11:59:57;;;;;;;;;;;;;;;15.93;26.29;98040.81;4991916;28;19926;-77
2022/04/18 12:08:02;;;;;;;;;;;;;;;16.22;27.56;98029.59;4987777;28;19996;-77
2022/04/18 12:10:32;;;;;;;;;;;;;;;16.55;27.07;98031.34;4999076;28;19926;-77
2022/04/18 12:13:01;;;;;;;;;;;;;;;16.30;26.71;98019.66;4982365;28;20027;-75
2022/04/18 12:15:29;;;;;;;;;;;;;;;16.29;26.69;98017.22;4984991;28;19957;-76
2022/04/18 12:17:58;;;;;;;;;;;;;;;16.08;26.97;98022.84;4980794;28;20419;-76
2022/04/18 12:20:27;;;;;;;;;;;;;;;15.87;26.59;98010.13;4996322;28;19937;-76
2022/04/18 12:22:58;;;;;;;;;;;;;;;15.69;27.23;98006.00;4999195;28;19926;-77
2022/04/18 12:25:26;;;;;;;;;;;;;;;16.02;26.84;97999.56;4974523;28;19925;-76
2022/04/18 12:27:56;;;;;;;;;;;;;;;16.30;26.93;97994.97;4990406;28;19929;-78
2022/04/18 12:30:27;;;;;;;;;;;;;;;16.39;27.35;97986.59;4983154;28;19925;-77
2022/04/18 12:32:55;;;;;;;;;;;;;;;16.26;26.22;97985.84;4977783;28;19953;-76
2022/04/18 12:35:36;;;;;;;;;;;;;;;16.30;26.92;97980.44;4978441;28;20008;-77
2022/04/18 12:38:05;;;;;;;;;;;;;;;16.41;26.77;97976.88;4984772;28;19934;-76
2022/04/18 12:40:34;;;;;;;;;;;;;;;16.53;26.34;97978.78;4998730;28;19929;-78
2022/04/18 12:43:06;;;;;;;;;;;;;;;16.64;26.33;97979.09;4965635;28;19925;-75
2022/04/18 12:46:00;;;;;;;;;;;;;;;16.59;26.11;97980.13;4980586;28;19976;-78
2022/04/18 12:48:28;;;;;;;;;;;;;;;16.39;26.39;97973.69;5003076;28;19934;-79
2022/04/18 12:50:57;;;;;;;;;;;;;;;16.35;27.02;97974.72;4989506;28;19925;-79
2022/04/18 12:53:39;;;;;;;;;;;;;;;16.41;27.24;97971.41;4996087;28;19944;-79
2022/04/18 12:56:33;;;;;;;;;;;;;;;16.79;27.76;97966.59;4976313;28;19932;-79
2022/04/18 12:59:04;;;;;;;;;;;;;;;16.85;27.17;97965.19;5003528;28;19972;-80
2022/04/18 13:01:34;;;;;;;;;;;;;;;16.84;27.04;97969.88;4996164;28;19926;-80
2022/04/18 13:04:02;;;;;;;;;;;;;;;16.89;26.31;97963.34;4997721;28;19929;-82
2022/04/18 13:06:31;;;;;;;;;;;;;;;16.85;26.95;97951.47;4999378;28;20466;-81
2022/04/18 13:08:59;;;;;;;;;;;;;;;16.73;26.22;97947.66;4975968;28;19932;-79
2022/04/18 13:11:37;;;;;;;;;;;;;;;16.69;26.18;97941.22;4988575;28;19936;-77
2022/04/18 13:14:08;;;;;;;;;;;;;;;16.94;26.94;97941.13;4999116;28;19940;-78
2022/04/18 13:16:36;;;;;;;;;;;;;;;17.22;25.47;97939.09;4986394;28;19956;-78
2022/04/18 13:19:05;;;;;;;;;;;;;;;16.97;26.53;97932.97;4991893;28;19926;-77
2022/04/18 13:21:58;;;;;;;;;;;;;;;17.09;26.08;97934.84;4964205;28;19949;-78
2022/04/18 13:24:27;;;;;;;;;;;;;;;16.90;25.81;97937.50;4973281;28;20342;-80
2022/04/18 13:26:55;;;;;;;;;;;;;;;16.78;25.61;97924.66;4952423;28;20364;-77
2022/04/18 13:29:24;;;;;;;;;;;;;;;16.58;26.30;97920.94;4976863;28;19926;-76
2022/04/18 13:31:52;;;;;;;;;;;;;;;16.49;26.38;97918.34;4954714;28;20419;-78
2022/04/18 13:34:20;;;;;;;;;;;;;;;16.71;26.16;97919.75;4954364;28;20277;-76
2022/04/18 13:36:53;;;;;;;;;;;;;;;16.80;26.43;97910.56;4943356;28;20016;-76
2022/04/18 13:42:14;;;;;;;;;;;;;;;17.06;26.29;97902.63;4978566;28;19933;-77
2022/04/18 13:44:43;;;;;;;;;;;;;;;17.20;26.46;97902.97;4976194;28;20127;-76
2022/04/18 13:47:12;;;;;;;;;;;;;;;17.24;27.00;97901.09;4958111;28;20272;-76
2022/04/18 13:49:40;;;;;;;;;;;;;;;17.29;26.30;97889.06;4976178;28;19926;-76
2022/04/18 13:52:09;;;;;;;;;;;;;;;17.18;25.59;97893.50;4938465;28;19926;-76
2022/04/18 13:54:38;;;;;;;;;;;;;;;17.00;25.82;97893.84;4978138;28;19953;-78
2022/04/18 13:57:30;;;;;;;;;;;;;;;16.92;25.87;97894.03;4973858;28;19937;-76
2022/04/18 14:00:00;;;;;;;;;;;;;;;16.33;26.44;97890.09;4959914;28;19926;-76
2022/04/18 14:02:38;;;;;;;;;;;;;;;16.20;26.82;97894.81;4977895;28;19948;-77
2022/04/18 14:05:07;;;;;;;;;;;;;;;15.93;27.15;97884.66;4972841;28;19927;-77